Time;durP1;ratioP1;P1;durP2;ratioP2;P2;SDS_P1;SDS_P2;PMS_P1;PMS_P2;Temp;Humidity;BMP_temperature;BMP_pressure;BME280_temperature;BME280_humidity;BME280_pressure;Samples;Min_cycle;Max_cycle;Signal;HPM_P1;HPM_P2
2022/06/13 00:01:10;;;;;;;9.70;4.88;;;;;;;14.27;71.97;101289.47;6257096;23;20099;-81
2022/06/13 00:03:37;;;;;;;11.13;5.10;;;;;;;14.21;72.00;101276.97;6254403;23;20051;-80
2022/06/13 00:06:04;;;;;;;11.15;5.03;;;;;;;14.21;72.22;101292.75;6259125;23;20048;-81
2022/06/13 00:08:31;;;;;;;10.32;5.07;;;;;;;14.22;72.13;101299.66;6258539;23;20051;-84
2022/06/13 00:10:58;;;;;;;12.43;5.18;;;;;;;14.19;72.23;101299.97;6258203;23;20020;-82
2022/06/13 00:13:25;;;;;;;10.68;4.35;;;;;;;14.03;72.19;101278.94;6258447;23;20020;-81
2022/06/13 00:15:53;;;;;;;10.82;4.63;;;;;;;13.97;72.61;101273.50;6257886;23;20046;-84
2022/06/13 00:18:20;;;;;;;11.55;5.07;;;;;;;14.13;72.65;101294.56;6257296;23;20020;-81
2022/06/13 00:20:46;;;;;;;9.07;4.93;;;;;;;14.04;72.61;101285.03;6257887;23;20051;-80
2022/06/13 00:23:13;;;;;;;13.88;5.22;;;;;;;13.95;72.79;101273.66;6259220;23;20034;-79
2022/06/13 00:25:41;;;;;;;11.48;4.97;;;;;;;14.06;72.61;101277.78;6259398;23;20024;-81
2022/06/13 00:28:08;;;;;;;9.77;5.13;;;;;;;14.02;72.93;101266.75;6258799;23;20038;-82
2022/06/13 00:30:34;;;;;;;14.35;4.97;;;;;;;14.02;72.78;101261.50;6259474;23;20016;-81
2022/06/13 00:33:02;;;;;;;11.60;5.47;;;;;;;13.95;73.23;101256.06;6261013;23;20028;-81
2022/06/13 00:35:29;;;;;;;14.18;5.13;;;;;;;13.98;72.95;101252.28;6260773;23;20024;-84
2022/06/13 00:37:56;;;;;;;13.40;6.07;;;;;;;13.97;72.96;101255.91;6260022;23;20035;-81
2022/06/13 00:40:23;;;;;;;9.85;5.32;;;;;;;13.92;73.12;101261.66;6261920;23;20090;-83
2022/06/13 00:42:50;;;;;;;10.40;5.05;;;;;;;13.93;73.08;101263.28;6262649;23;20080;-79
2022/06/13 00:45:20;;;;;;;11.10;5.45;;;;;;;13.94;73.44;101259.69;6257125;23;20115;-81
2022/06/13 00:47:49;;;;;;;8.70;5.15;;;;;;;13.95;73.28;101257.88;6255756;23;20024;-80
2022/06/13 00:50:22;;;;;;;13.52;5.55;;;;;;;13.88;73.55;101256.88;6254164;23;20051;-84
2022/06/13 00:52:53;;;;;;;8.85;5.50;;;;;;;13.80;73.97;101257.66;6253536;23;20361;-82
2022/06/13 00:55:27;;;;;;;12.98;5.68;;;;;;;13.78;74.14;101264.91;6253635;23;20044;-82
2022/06/13 00:57:54;;;;;;;11.93;5.43;;;;;;;13.75;74.02;101264.41;6255497;23;20067;-81
2022/06/13 01:00:21;;;;;;;11.48;5.18;;;;;;;13.64;74.58;101264.72;6257428;23;20039;-81
2022/06/13 01:02:51;;;;;;;10.35;5.50;;;;;;;13.52;75.03;101251.88;6259175;23;20024;-84
2022/06/13 01:05:24;;;;;;;14.65;5.65;;;;;;;13.45;75.32;101255.28;6259947;23;20024;-80
2022/06/13 01:07:54;;;;;;;12.82;5.90;;;;;;;13.40;75.72;101253.13;6255669;23;20027;-81
2022/06/13 01:13:10;;;;;;;14.90;5.43;;;;;;;13.37;76.17;101263.16;6258748;23;20066;-82
2022/06/13 01:16:06;;;;;;;14.98;5.50;;;;;;;13.39;76.13;101248.88;6255576;23;20020;-83
2022/06/13 01:18:56;;;;;;;11.55;6.38;;;;;;;13.35;76.30;101249.34;6258140;23;20636;-80
2022/06/13 01:21:38;;;;;;;12.90;5.93;;;;;;;13.26;76.33;101257.19;6255805;23;20457;-82
2022/06/13 01:24:43;;;;;;;9.90;5.72;;;;;;;13.24;76.78;101250.44;6256340;23;20024;-82
2022/06/13 01:27:46;;;;;;;12.20;5.63;;;;;;;13.19;76.83;101258.81;6244466;23;20051;-86
2022/06/13 01:30:50;;;;;;;13.98;5.45;;;;;;;13.16;77.01;101263.56;6239633;23;20024;-82
2022/06/13 01:33:21;;;;;;;13.10;5.97;;;;;;;13.07;77.38;101253.97;6162133;23;20025;-81
2022/06/13 01:35:58;;;;;;;14.77;6.38;;;;;;;13.01;77.43;101265.91;6241275;23;20020;-82
2022/06/13 01:38:44;;;;;;;9.20;5.65;;;;;;;12.96;77.92;101268.19;6260140;23;20024;-82
2022/06/13 01:41:17;;;;;;;14.70;5.70;;;;;;;12.93;78.22;101273.75;6259544;23;20389;-82
2022/06/13 01:43:59;;;;;;;12.60;5.43;;;;;;;12.96;78.35;101274.25;6256682;23;20024;-80
2022/06/13 01:46:33;;;;;;;15.90;5.53;;;;;;;12.86;78.81;101273.53;6254619;23;20024;-78
2022/06/13 01:49:11;;;;;;;12.15;6.03;;;;;;;12.82;78.93;101277.47;6256513;23;20055;-79
2022/06/13 01:51:46;;;;;;;11.90;5.65;;;;;;;12.81;79.15;101281.06;6255272;23;20356;-82
2022/06/13 01:54:22;;;;;;;19.48;5.90;;;;;;;12.78;78.97;101280.53;6249729;23;20031;-85
2022/06/13 01:56:59;;;;;;;15.35;6.47;;;;;;;12.76;79.08;101288.56;6254287;23;20054;-81
2022/06/13 01:59:32;;;;;;;17.92;6.45;;;;;;;12.75;79.17;101292.22;6255821;23;20047;-82
2022/06/13 02:02:08;;;;;;;11.13;6.28;;;;;;;12.80;78.97;101299.59;6258188;23;20020;-82
2022/06/13 02:04:38;;;;;;;10.98;6.18;;;;;;;12.75;79.31;101286.97;6255641;23;20032;-85
2022/06/13 02:07:12;;;;;;;18.63;6.30;;;;;;;12.85;79.17;101297.34;6254048;23;20044;-83
2022/06/13 02:09:42;;;;;;;18.50;6.47;;;;;;;12.85;79.14;101298.16;6252787;23;20050;-82
2022/06/13 02:12:11;;;;;;;15.38;6.38;;;;;;;12.87;79.31;101277.00;6255941;23;20028;-82
2022/06/13 02:14:41;;;;;;;15.20;6.15;;;;;;;12.85;79.31;101292.91;6263004;23;20028;-82
2022/06/13 02:17:12;;;;;;;16.98;6.30;;;;;;;12.82;79.65;101287.97;6270915;23;20023;-86
2022/06/13 02:19:46;;;;;;;15.70;7.20;;;;;;;12.86;79.37;101293.72;6271191;22;20346;-80
2022/06/13 02:22:19;;;;;;;16.88;6.90;;;;;;;12.83;79.89;101294.03;6261234;23;20019;-80
2022/06/13 02:24:53;;;;;;;16.75;6.57;;;;;;;12.82;80.04;101293.22;6253625;23;20024;-80
2022/06/13 02:27:23;;;;;;;20.50;6.45;;;;;;;12.90;79.65;101290.66;6254821;23;20075;-81
2022/06/13 02:29:55;;;;;;;14.45;6.72;;;;;;;12.88;79.85;101286.53;6252743;23;20016;-80
2022/06/13 02:32:28;;;;;;;24.45;6.47;;;;;;;12.89;79.73;101285.53;6252827;23;20024;-79
2022/06/13 02:35:01;;;;;;;14.15;5.97;;;;;;;12.84;80.31;101279.94;6249101;23;20028;-81
2022/06/13 02:37:33;;;;;;;13.82;6.78;;;;;;;12.81;80.58;101281.06;6251476;23;20024;-82
2022/06/13 02:40:07;;;;;;;19.17;7.60;;;;;;;12.87;80.30;101275.19;6255063;23;20021;-81
2022/06/13 02:42:42;;;;;;;18.50;7.57;;;;;;;12.83;80.59;101279.09;6255031;23;20042;-80
2022/06/13 02:45:13;;;;;;;16.13;6.93;;;;;;;12.77;80.85;101282.34;6254892;23;20046;-81
2022/06/13 02:47:47;;;;;;;12.07;6.10;;;;;;;12.82;80.58;101266.13;6257333;23;20024;-81
2022/06/13 02:50:18;;;;;;;15.27;6.28;;;;;;;12.87;80.81;101266.50;6257162;23;20035;-81
2022/06/13 02:52:50;;;;;;;16.70;7.25;;;;;;;12.83;80.54;101255.47;6257995;23;20050;-80
2022/06/13 02:55:19;;;;;;;22.00;7.40;;;;;;;12.83;80.70;101258.09;6257927;23;20030;-81
2022/06/13 02:58:00;;;;;;;16.73;6.95;;;;;;;12.79;80.90;101267.25;6256875;23;20130;-82
2022/06/13 03:00:43;;;;;;;15.25;7.03;;;;;;;12.82;80.99;101263.50;6255922;23;20546;-83
2022/06/13 03:03:22;;;;;;;15.50;7.70;;;;;;;12.79;80.97;101267.25;6254599;23;20430;-78
2022/06/13 03:06:00;;;;;;;18.88;8.05;;;;;;;12.79;81.12;101259.38;6253473;23;20035;-79
2022/06/13 03:08:57;;;;;;;21.02;8.38;;;;;;;12.75;81.22;101265.94;6254945;23;20027;-79
2022/06/13 03:11:45;;;;;;;17.35;7.72;;;;;;;12.70;81.49;101262.13;6234280;23;20021;-84
2022/06/13 03:14:22;;;;;;;14.50;7.22;;;;;;;12.61;81.54;101269.13;6252771;23;20016;-79
2022/06/13 03:16:56;;;;;;;20.27;7.07;;;;;;;12.62;81.86;101273.41;6253990;23;20047;-79
2022/06/13 03:19:30;;;;;;;13.50;7.65;;;;;;;12.62;82.08;101276.03;6254583;23;20031;-77
2022/06/13 03:22:04;;;;;;;15.82;7.93;;;;;;;12.61;81.90;101279.63;6254960;23;20012;-79
2022/06/13 03:24:42;;;;;;;12.48;7.43;;;;;;;12.62;81.82;101276.03;6255075;23;20054;-80
2022/06/13 03:27:15;;;;;;;14.18;7.55;;;;;;;12.64;81.73;101292.47;6254130;23;20024;-79
2022/06/13 03:29:46;;;;;;;;;;;;;;;12.63;81.68;101288.19;6253232;23;20370;-77
2022/06/13 03:32:17;;;;;;;17.10;7.47;;;;;;;12.47;82.08;101291.50;6252796;23;19919;-78
2022/06/13 03:34:50;;;;;;;16.70;7.10;;;;;;;12.43;82.39;101297.19;6251691;23;20056;-78
2022/06/13 03:37:20;;;;;;;11.30;6.95;;;;;;;12.46;82.14;101296.91;6251426;23;20059;-80
2022/06/13 03:39:51;;;;;;;11.43;7.13;;;;;;;12.47;82.15;101294.13;6252418;23;20051;-78
2022/06/13 03:42:24;;;;;;;17.95;7.72;;;;;;;12.50;82.16;101295.63;6248104;23;20051;-81
2022/06/13 03:44:56;;;;;;;13.27;7.05;;;;;;;12.48;81.86;101293.16;6249729;23;20361;-78
2022/06/13 03:47:30;;;;;;;12.67;6.93;;;;;;;12.54;82.08;101294.34;6248257;23;20035;-79
2022/06/13 03:50:02;;;;;;;17.73;7.03;;;;;;;12.55;81.45;101290.75;6254062;23;20043;-79
2022/06/13 03:52:33;;;;;;;13.43;7.25;;;;;;;12.69;81.19;101287.56;6258187;23;20031;-79
2022/06/13 03:55:05;;;;;;;15.10;7.55;;;;;;;12.71;80.86;101288.25;6256414;23;20020;-80
2022/06/13 03:57:36;;;;;;;16.37;7.10;;;;;;;12.77;80.60;101282.34;6253139;23;20364;-79
2022/06/13 04:00:08;;;;;;;18.13;7.05;;;;;;;12.84;80.83;101286.00;6251214;23;20484;-83
2022/06/13 04:02:37;;;;;;;15.68;7.28;;;;;;;12.95;80.30;101285.75;6251286;23;20066;-79
2022/06/13 04:05:06;;;;;;;12.75;7.00;;;;;;;13.05;80.25;101287.44;6249734;23;20031;-80
2022/06/13 04:07:38;;;;;;;14.10;7.25;;;;;;;13.08;79.70;101281.88;6251585;23;20024;-80
2022/06/13 04:10:07;;;;;;;17.60;7.43;;;;;;;13.19;79.71;101284.28;6218552;22;20025;-78
2022/06/13 04:12:59;;;;;;;13.05;6.63;;;;;;;13.32;79.30;101274.13;6212664;23;20060;-76
2022/06/13 04:15:38;;;;;;;14.68;6.30;;;;;;;13.36;78.51;101275.47;6215381;23;20056;-79
2022/06/13 04:18:11;;;;;;;13.63;6.75;;;;;;;13.42;78.36;101264.31;6216064;23;20095;-77
2022/06/13 04:20:46;;;;;;;12.73;6.70;;;;;;;13.44;78.12;101264.97;6215081;23;20027;-77
2022/06/13 04:23:21;;;;;;;13.32;6.10;;;;;;;13.77;77.58;101270.31;6215205;23;20017;-78
2022/06/13 04:25:54;;;;;;;12.32;6.57;;;;;;;14.47;75.01;101271.56;6215678;23;20389;-78
2022/06/13 04:28:25;;;;;;;17.70;7.97;;;;;;;15.15;71.36;101272.88;6215030;23;20496;-78
2022/06/13 04:30:54;;;;;;;14.02;6.38;;;;;;;15.01;71.35;101281.53;6215568;23;20052;-78
2022/06/13 04:33:26;;;;;;;13.07;5.90;;;;;;;15.11;71.08;101282.97;6215001;23;20069;-78
2022/06/13 04:35:56;;;;;;;12.13;6.33;;;;;;;15.10;71.97;101288.41;6215497;23;20056;-78
2022/06/13 04:38:24;;;;;;;10.27;5.63;;;;;;;14.75;72.81;101295.72;6215622;23;20326;-77
2022/06/13 04:40:55;;;;;;;14.55;6.18;;;;;;;14.45;73.99;101288.53;6215568;23;20055;-79
2022/06/13 04:43:27;;;;;;;10.88;6.00;;;;;;;14.40;74.66;101291.63;6219953;23;20068;-80
2022/06/13 04:45:58;;;;;;;10.75;5.90;;;;;;;14.20;75.36;101280.56;6220662;23;20028;-80
2022/06/13 04:48:26;;;;;;;14.55;6.68;;;;;;;14.18;75.88;101277.28;6224086;23;20025;-80
2022/06/13 04:50:59;;;;;;;14.50;6.45;;;;;;;13.90;77.10;101279.41;6222641;23;20021;-79
2022/06/13 04:53:30;;;;;;;12.30;6.65;;;;;;;14.00;77.32;101284.53;6218140;23;20024;-82
2022/06/13 04:55:59;;;;;;;17.42;6.57;;;;;;;14.00;77.32;101281.06;6218527;23;20024;-80
2022/06/13 04:58:29;;;;;;;12.70;6.85;;;;;;;14.05;77.32;101287.50;6218813;23;20096;-80
2022/06/13 05:01:01;;;;;;;11.70;6.82;;;;;;;14.08;77.74;101292.44;6219850;23;20024;-80
2022/06/13 05:03:31;;;;;;;11.02;6.47;;;;;;;13.93;78.70;101291.41;6222205;23;20025;-82
2022/06/13 05:06:05;;;;;;;12.65;6.97;;;;;;;14.06;78.38;101301.47;6224738;23;20020;-80
2022/06/13 05:08:35;;;;;;;11.75;6.45;;;;;;;14.15;78.28;101303.13;6230484;23;20032;-80
2022/06/13 05:11:22;;;;;;;10.75;6.43;;;;;;;14.23;78.26;101311.84;6227992;23;20032;-82
2022/06/13 05:13:51;;;;;;;14.70;6.25;;;;;;;14.29;78.21;101313.81;6225791;23;20539;-81
2022/06/13 05:16:29;;;;;;;15.88;6.93;;;;;;;14.31;78.32;101313.66;6226921;23;20090;-81
2022/06/13 05:19:10;;;;;;;14.07;6.47;;;;;;;14.28;78.37;101316.63;6225168;23;20027;-81
2022/06/13 05:21:50;;;;;;;16.90;7.03;;;;;;;14.33;78.56;101316.13;6226329;23;20404;-82
2022/06/13 05:24:46;;;;;;;14.90;6.60;;;;;;;14.18;79.28;101306.22;6232051;23;20031;-81
2022/06/13 05:27:13;;;;;;;19.33;7.70;;;;;;;14.29;79.11;101321.72;6227410;23;20111;-81
2022/06/13 05:29:40;;;;;;;13.90;6.57;;;;;;;14.43;78.89;101324.72;6225840;23;20028;-79
2022/06/13 05:32:09;;;;;;;14.25;7.03;;;;;;;14.55;77.84;101324.25;6227612;23;20040;-80
2022/06/13 05:34:39;;;;;;;14.15;7.18;;;;;;;14.73;78.55;101334.59;6222822;23;20520;-80
2022/06/13 05:37:07;;;;;;;17.10;7.57;;;;;;;14.89;79.57;101334.56;6220568;23;20412;-80
2022/06/13 05:39:36;;;;;;;18.42;6.88;;;;;;;14.90;77.95;101330.94;6219368;23;20373;-79
2022/06/13 05:42:04;;;;;;;11.35;6.82;;;;;;;14.44;79.88;101336.91;6220247;23;20024;-79
2022/06/13 05:44:33;;;;;;;13.07;7.43;;;;;;;13.93;81.22;101328.25;6226066;23;20054;-79
2022/06/13 05:47:00;;;;;;;19.98;9.10;;;;;;;13.95;82.38;101339.44;6221822;23;20021;-80
2022/06/13 05:49:27;;;;;;;13.60;7.75;;;;;;;14.20;81.60;101349.00;6220367;23;20025;-79
2022/06/13 05:51:53;;;;;;;12.27;7.38;;;;;;;14.54;81.75;101348.09;6220072;23;20024;-80
2022/06/13 05:54:22;;;;;;;13.93;6.72;;;;;;;14.95;82.35;101354.16;6227598;23;20361;-81
2022/06/13 05:56:48;;;;;;;20.48;8.43;;;;;;;15.03;78.04;101361.25;6224216;23;20025;-81
2022/06/13 05:59:15;;;;;;;17.50;7.75;;;;;;;15.07;78.41;101363.38;6224367;23;20112;-79
2022/06/13 06:01:41;;;;;;;14.68;7.55;;;;;;;15.04;78.78;101371.63;6225174;23;20383;-79
2022/06/13 06:04:08;;;;;;;19.55;8.07;;;;;;;14.97;77.92;101361.91;6228070;23;20017;-78
2022/06/13 06:06:35;;;;;;;15.48;8.48;;;;;;;14.80;78.43;101366.38;6222702;23;20028;-78
2022/06/13 06:09:02;;;;;;;15.48;7.10;;;;;;;14.90;78.42;101362.56;6221614;23;20111;-79
2022/06/13 06:11:32;;;;;;;15.02;6.88;;;;;;;15.55;78.35;101370.34;6223148;23;20024;-79
2022/06/13 06:13:59;;;;;;;15.73;7.45;;;;;;;15.70;75.37;101378.38;6223519;23;20033;-79
2022/06/13 06:16:28;;;;;;;12.95;6.97;;;;;;;16.72;71.77;101377.28;6223163;23;20465;-79
2022/06/13 06:18:56;;;;;;;15.82;7.35;;;;;;;17.06;71.10;101373.31;6224082;23;20353;-80
2022/06/13 06:21:23;;;;;;;15.88;7.03;;;;;;;17.24;69.29;101385.22;6223497;23;20028;-79
2022/06/13 06:23:50;;;;;;;13.00;6.68;;;;;;;17.03;70.43;101386.91;6223651;23;20100;-78
2022/06/13 06:26:20;;;;;;;15.25;7.53;;;;;;;16.56;74.30;101375.53;6225023;23;20043;-79
2022/06/13 06:28:50;;;;;;;15.43;7.47;;;;;;;16.13;74.43;101376.16;6224111;23;20017;-80
2022/06/13 06:31:17;;;;;;;17.88;7.53;;;;;;;16.02;76.74;101374.78;6225797;23;20032;-79
2022/06/13 06:33:43;;;;;;;19.55;7.93;;;;;;;15.91;77.21;101377.78;6228091;23;20025;-79
2022/06/13 06:36:13;;;;;;;16.17;7.53;;;;;;;15.98;78.57;101373.47;6224689;23;20025;-80
2022/06/13 06:38:40;;;;;;;21.60;7.72;;;;;;;16.13;78.57;101378.81;6221773;23;20031;-79
2022/06/13 06:41:10;;;;;;;17.42;7.65;;;;;;;16.59;77.10;101380.47;6223065;23;20024;-79
2022/06/13 06:43:37;;;;;;;17.65;7.32;;;;;;;16.64;75.80;101382.63;6229589;23;20017;-80
2022/06/13 06:46:05;;;;;;;15.45;7.80;;;;;;;16.41;74.70;101374.69;6227738;23;20028;-79
2022/06/13 06:48:32;;;;;;;17.85;7.90;;;;;;;16.50;73.29;101378.09;6221633;23;20040;-79
2022/06/13 06:50:59;;;;;;;17.63;7.43;;;;;;;16.46;75.08;101376.81;6221956;23;20063;-79
2022/06/13 06:59:53;;;;;;;22.27;7.70;;;;;;;16.75;70.14;101379.56;6220097;23;20029;-79
2022/06/13 07:01:47;;;;;;;16.10;6.90;;;;;;;18.54;64.37;101380.88;6222389;23;20039;-82
2022/06/13 07:04:14;;;;;;;14.98;7.25;;;;;;;19.72;60.38;101379.28;6224213;23;20416;-77
2022/06/13 07:06:41;;;;;;;13.73;6.72;;;;;;;21.34;55.33;101375.38;6222810;23;20330;-80
2022/06/13 07:09:08;;;;;;;13.40;7.03;;;;;;;22.02;52.49;101383.75;6222300;23;20055;-80
2022/06/13 07:14:21;;;;;;;15.23;6.90;;;;;;;20.59;55.02;101376.66;6228934;23;20032;-79
2022/06/13 07:16:49;;;;;;;16.08;7.85;;;;;;;19.71;58.50;101383.78;6225590;23;20074;-80
2022/06/13 07:19:16;;;;;;;21.65;8.00;;;;;;;19.63;59.72;101391.91;6221508;23;20035;-79
2022/06/13 07:21:43;;;;;;;20.17;8.70;;;;;;;19.59;60.43;101379.22;6221818;23;20086;-80
2022/06/13 07:24:10;;;;;;;22.02;9.13;;;;;;;19.11;61.53;101377.28;6221830;23;20017;-80
2022/06/13 07:26:37;;;;;;;22.75;9.85;;;;;;;18.84;62.99;101378.94;6221079;23;20024;-80
2022/06/13 07:29:06;;;;;;;26.15;10.93;;;;;;;19.20;61.84;101388.56;6221903;23;20024;-80
2022/06/13 07:31:39;;;;;;;18.70;10.15;;;;;;;18.94;62.41;101391.84;6223707;23;20095;-81
2022/06/13 07:34:08;;;;;;;20.35;9.85;;;;;;;18.92;63.10;101379.78;6223438;23;20059;-79
2022/06/13 07:36:35;;;;;;;28.15;10.88;;;;;;;18.84;64.10;101391.38;6222733;23;20033;-79
2022/06/13 07:39:05;;;;;;;22.40;10.75;;;;;;;18.44;65.03;101406.84;6223061;23;20031;-80
2022/06/13 07:41:31;;;;;;;24.33;10.25;;;;;;;18.38;65.98;101396.22;6221830;23;20393;-80
2022/06/13 07:44:00;;;;;;;19.48;9.55;;;;;;;19.15;64.36;101393.63;6223893;23;20017;-80
2022/06/13 07:46:30;;;;;;;20.83;10.10;;;;;;;20.54;60.29;101389.75;6223192;23;20052;-79
2022/06/13 07:48:57;;;;;;;21.55;9.70;;;;;;;20.62;59.36;101410.00;6222723;23;20124;-80
2022/06/13 07:51:25;;;;;;;21.75;11.10;;;;;;;20.11;60.52;101410.47;6224989;23;20055;-80
2022/06/13 07:53:53;;;;;;;19.27;10.10;;;;;;;20.88;59.06;101421.47;6225994;23;20480;-80
2022/06/13 07:56:22;;;;;;;22.90;11.82;;;;;;;20.06;61.34;101413.72;6225315;23;20071;-80
2022/06/13 07:58:51;;;;;;;24.73;12.68;;;;;;;19.81;61.42;101413.44;6224880;23;20024;-79
2022/06/13 08:01:19;;;;;;;22.05;12.98;;;;;;;20.07;62.13;101415.38;6223699;23;20025;-80
2022/06/13 08:03:46;;;;;;;24.92;13.68;;;;;;;20.09;61.27;101409.84;6225380;23;20027;-80
2022/06/13 08:06:13;;;;;;;24.05;13.73;;;;;;;20.82;59.83;101430.25;6220326;23;20031;-80
2022/06/13 08:08:42;;;;;;;26.15;15.23;;;;;;;21.29;58.21;101425.75;6219270;23;20033;-79
2022/06/13 08:11:10;;;;;;;21.58;13.30;;;;;;;22.29;55.86;101423.56;6220605;23;20028;-80
2022/06/13 08:13:42;;;;;;;22.88;12.23;;;;;;;22.88;53.44;101419.72;6221298;23;20055;-80
2022/06/13 08:16:10;;;;;;;;;;;;;;;22.45;54.64;101431.06;6221626;23;20082;-81
2022/06/13 08:18:37;;;;;;;21.13;13.00;;;;;;;21.68;55.98;101440.03;6221151;23;19994;-80
2022/06/13 08:21:05;;;;;;;21.77;13.23;;;;;;;21.19;57.27;101431.50;6222603;23;20029;-82
2022/06/13 08:23:34;;;;;;;26.35;14.32;;;;;;;20.48;59.13;101433.09;6222664;23;20021;-81
2022/06/13 08:26:02;;;;;;;19.15;12.40;;;;;;;21.01;58.60;101443.78;6222862;23;20075;-80
2022/06/13 08:28:29;;;;;;;25.30;12.63;;;;;;;21.74;55.50;101428.53;6220876;23;20021;-81
2022/06/13 08:31:01;;;;;;;20.13;11.77;;;;;;;22.55;54.64;101435.94;6222632;23;20079;-80
2022/06/13 08:33:28;;;;;;;23.93;10.93;;;;;;;22.52;52.95;101431.84;6219848;23;20017;-80
2022/06/13 08:35:55;;;;;;;21.80;11.30;;;;;;;21.71;54.42;101418.31;6216823;23;20207;-78
2022/06/13 08:38:24;;;;;;;21.27;10.70;;;;;;;23.54;50.53;101435.13;6217121;23;20453;-79
2022/06/13 08:40:58;;;;;;;20.80;9.95;;;;;;;22.49;51.36;101437.63;6219755;23;20543;-80
2022/06/13 08:43:44;;;;;;;16.77;9.32;;;;;;;21.56;53.25;101433.69;6219768;23;20024;-80
2022/06/13 08:46:17;;;;;;;20.25;10.18;;;;;;;20.61;56.24;101433.13;6219542;23;20024;-79
2022/06/13 08:48:45;;;;;;;15.35;8.70;;;;;;;20.70;56.54;101444.38;6223138;23;20024;-80
2022/06/13 08:51:14;;;;;;;16.08;8.85;;;;;;;21.18;53.88;101442.34;6222073;23;20017;-80
2022/06/13 08:53:48;;;;;;;17.92;9.55;;;;;;;20.79;54.55;101446.66;6222482;23;20055;-79
2022/06/13 08:56:19;;;;;;;19.88;8.82;;;;;;;21.64;53.86;101455.59;6218801;23;20056;-79
2022/06/13 08:58:53;;;;;;;17.55;8.85;;;;;;;22.47;51.47;101451.16;6219115;23;20531;-80
2022/06/13 09:01:29;;;;;;;22.20;10.25;;;;;;;23.03;52.28;101449.56;6218685;23;20035;-80
2022/06/13 09:04:01;;;;;;;19.35;8.98;;;;;;;23.57;46.93;101450.72;6219529;23;20068;-80
2022/06/13 09:06:35;;;;;;;20.25;8.50;;;;;;;23.73;46.54;101444.78;6218222;23;20024;-80
2022/06/13 09:09:10;;;;;;;16.63;7.80;;;;;;;22.90;46.65;101445.16;6218220;23;20044;-80
2022/06/13 09:11:43;;;;;;;16.27;6.97;;;;;;;21.48;48.82;101448.88;6222529;23;20024;-80
2022/06/13 09:14:16;;;;;;;16.73;6.57;;;;;;;21.31;49.58;101445.00;6223277;23;20465;-81
2022/06/13 09:16:50;;;;;;;17.35;6.22;;;;;;;21.04;48.50;101449.50;6220825;23;20095;-80
2022/06/13 09:19:23;;;;;;;16.00;6.95;;;;;;;20.70;50.26;101453.19;6220310;23;20027;-80
2022/06/13 09:21:53;;;;;;;13.20;6.38;;;;;;;20.81;50.47;101457.88;6221056;23;20020;-80
2022/06/13 09:24:29;;;;;;;16.38;6.68;;;;;;;20.50;51.92;101457.63;6221260;23;20025;-80
2022/06/13 09:27:04;;;;;;;18.38;6.85;;;;;;;20.25;52.77;101461.84;6220667;23;20025;-79
2022/06/13 09:29:45;;;;;;;15.25;6.95;;;;;;;20.35;52.67;101454.28;6220438;23;20020;-79
2022/06/13 09:32:15;;;;;;;15.77;7.97;;;;;;;20.48;52.56;101455.16;6222475;23;20068;-80
2022/06/13 09:34:45;;;;;;;14.75;6.95;;;;;;;20.24;52.82;101463.69;6222553;23;20017;-79
2022/06/13 09:37:14;;;;;;;14.27;7.00;;;;;;;19.96;53.30;101462.94;6220239;23;20029;-80
2022/06/13 09:39:42;;;;;;;17.65;6.82;;;;;;;19.75;52.77;101471.84;6218318;23;20028;-81
2022/06/13 09:42:23;;;;;;;17.35;6.57;;;;;;;19.73;53.06;101466.72;6221818;23;20186;-79
2022/06/13 09:45:05;;;;;;;15.88;6.85;;;;;;;19.71;53.43;101470.56;6222272;23;20051;-80
2022/06/13 09:47:42;;;;;;;14.85;6.43;;;;;;;19.94;54.85;101468.44;6220965;23;20492;-79
2022/06/13 09:50:19;;;;;;;14.18;6.22;;;;;;;20.11;53.82;101468.94;6221338;23;20537;-80
2022/06/13 09:52:55;;;;;;;16.35;6.07;;;;;;;20.34;52.19;101469.41;6219603;23;20039;-80
2022/06/13 09:55:27;;;;;;;10.43;5.82;;;;;;;20.24;50.16;101463.69;6216411;23;20382;-80
2022/06/13 09:58:05;;;;;;;16.48;6.50;;;;;;;20.49;48.53;101474.59;6217520;23;20032;-80
2022/06/13 10:00:40;;;;;;;12.32;5.78;;;;;;;20.82;48.35;101486.09;6218403;23;20048;-79
2022/06/13 10:03:17;;;;;;;14.85;5.82;;;;;;;21.23;46.85;101468.38;6217728;23;20032;-80
2022/06/13 10:05:48;;;;;;;12.13;5.82;;;;;;;20.83;48.11;101474.44;6217959;23;20029;-80
2022/06/13 10:08:37;;;;;;;11.30;5.80;;;;;;;20.84;49.06;101485.91;6217881;23;20039;-80
2022/06/13 10:11:09;;;;;;;14.60;5.70;;;;;;;21.08;48.87;101481.84;6218535;23;20031;-80
2022/06/13 10:13:46;;;;;;;;;;;;;;;21.21;48.23;101481.88;6218377;23;20051;-79
2022/06/13 10:16:23;;;;;;;14.35;6.00;;;;;;;21.58;47.68;101482.25;6216444;23;19919;-80
2022/06/13 10:19:13;;;;;;;16.35;6.15;;;;;;;21.70;46.39;101478.75;6223903;23;20020;-79
2022/06/13 10:21:44;;;;;;;11.48;5.72;;;;;;;21.25;47.40;101485.78;6219449;23;20048;-79
2022/06/13 10:24:24;;;;;;;15.20;6.40;;;;;;;21.62;47.39;101472.81;6220454;23;20016;-80
2022/06/13 10:27:00;;;;;;;12.15;6.28;;;;;;;21.82;46.36;101481.56;6219090;23;20020;-78
2022/06/13 10:29:58;;;;;;;14.00;6.65;;;;;;;22.06;46.00;101480.09;6218654;23;20048;-79
2022/06/13 10:32:38;;;;;;;13.50;5.93;;;;;;;22.39;44.92;101491.41;6217940;23;20060;-80
2022/06/13 10:35:20;;;;;;;11.57;4.90;;;;;;;21.47;46.60;101481.84;6217926;23;20017;-80
2022/06/13 10:37:58;;;;;;;14.00;6.03;;;;;;;21.60;45.41;101472.22;6219886;23;20030;-80
2022/06/13 10:40:26;;;;;;;12.13;5.72;;;;;;;21.53;46.12;101474.88;6215186;23;20024;-79
2022/06/13 10:42:53;;;;;;;15.93;5.95;;;;;;;21.49;45.38;101469.16;6216162;23;20025;-79
2022/06/13 10:45:22;;;;;;;12.63;5.40;;;;;;;21.65;45.66;101477.72;6216848;23;20021;-79
2022/06/13 10:47:55;;;;;;;12.70;5.40;;;;;;;21.91;43.85;101482.16;6217640;23;20060;-79
2022/06/13 10:50:24;;;;;;;;;;;;;;;21.79;45.28;101482.78;6226018;23;20021;-81
2022/06/13 10:52:56;;;;;;;12.90;5.20;;;;;;;21.11;45.80;101481.44;6222036;23;20264;-80
2022/06/13 10:55:26;;;;;;;;;;;;;;;21.52;44.97;101484.72;6216717;23;20409;-79
2022/06/13 10:58:00;;;;;;;14.82;5.35;;;;;;;21.32;44.84;101478.59;6215995;23;19965;-79
2022/06/13 11:00:29;;;;;;;11.30;5.07;;;;;;;21.40;42.34;101475.72;6214915;23;20032;-79
2022/06/13 11:03:12;;;;;;;8.38;4.25;;;;;;;21.56;41.27;101470.97;6215972;23;20029;-79
2022/06/13 11:05:53;;;;;;;12.32;4.53;;;;;;;21.43;41.38;101480.63;6214749;23;20020;-80
2022/06/13 11:08:21;;;;;;;8.98;4.75;;;;;;;21.60;42.94;101480.19;6216477;23;20425;-79
2022/06/13 11:10:57;;;;;;;11.52;4.88;;;;;;;22.33;42.64;101478.13;6216601;23;20035;-80
2022/06/13 11:13:28;;;;;;;12.23;5.22;;;;;;;22.81;40.94;101478.47;6214499;23;20024;-79
2022/06/13 11:24:43;;;;;;;13.32;5.70;;;;;;;22.31;42.70;101483.66;6183934;23;20650;-80
2022/06/13 11:30:33;;;;;;;10.60;4.93;;;;;;;22.78;40.92;101484.19;6215755;23;20148;-78
2022/06/13 11:33:02;;;;;;;10.93;4.20;;;;;;;22.77;38.64;101478.03;6217872;23;20025;-80
2022/06/13 11:35:36;;;;;;;7.75;4.32;;;;;;;22.37;39.41;101479.31;6217874;23;20021;-80
2022/06/13 11:38:19;;;;;;;10.60;4.18;;;;;;;22.16;41.51;101472.47;6217533;23;20025;-80
2022/06/13 11:40:56;;;;;;;7.30;4.03;;;;;;;22.26;42.48;101477.31;6218928;23;20028;-80
2022/06/13 11:43:31;;;;;;;7.38;4.07;;;;;;;22.58;41.61;101472.84;6216537;23;20025;-80
2022/06/13 11:46:01;;;;;;;13.07;3.80;;;;;;;22.55;40.60;101473.28;6219364;23;20034;-81
2022/06/13 11:48:29;;;;;;;11.23;4.25;;;;;;;22.43;41.66;101475.81;6220427;23;20048;-81
2022/06/13 11:51:01;;;;;;;9.25;3.63;;;;;;;22.71;41.32;101470.91;6220936;23;20052;-81
2022/06/13 11:53:37;;;;;;;6.88;3.78;;;;;;;22.27;40.63;101477.09;6220365;23;20040;-82
2022/06/13 11:56:08;;;;;;;9.10;4.35;;;;;;;22.79;40.13;101470.66;6219770;23;20497;-81
2022/06/13 11:58:40;;;;;;;8.88;4.82;;;;;;;22.46;40.44;101470.88;6221336;23;20024;-82
2022/06/13 12:01:12;;;;;;;;;;;;;;;22.20;40.01;101489.69;6223126;23;20025;-81
2022/06/13 12:03:43;;;;;;;14.02;4.97;;;;;;;22.20;39.72;101480.88;6220234;23;19946;-81
2022/06/13 12:06:14;;;;;;;9.60;4.22;;;;;;;22.17;38.46;101471.44;6218793;23;20461;-81